createdAt,value
2022-09-06T00:01:17.059Z,18.25
2022-09-06T00:04:20.085Z,18.29
2022-09-06T00:07:22.659Z,18.41
2022-09-06T00:10:25.960Z,18.40
2022-09-06T00:13:28.691Z,18.59
2022-09-06T00:16:32.186Z,18.68
2022-09-06T00:19:35.261Z,18.86
2022-09-06T00:22:38.244Z,18.96
2022-09-06T00:25:41.990Z,19.01
2022-09-06T00:28:45.055Z,19.04
2022-09-06T00:31:47.595Z,18.97
2022-09-06T00:34:50.413Z,19.02
2022-09-06T00:37:56.483Z,18.94
2022-09-06T00:40:59.430Z,18.92
2022-09-06T00:44:02.070Z,19.00
2022-09-06T00:47:05.642Z,18.99
2022-09-06T00:50:08.620Z,18.88
2022-09-06T00:53:11.541Z,18.78
2022-09-06T00:56:14.384Z,18.87
2022-09-06T00:59:17.526Z,18.97
2022-09-06T01:02:20.369Z,18.81
2022-09-06T01:05:24.820Z,18.77
2022-09-06T01:08:40.467Z,18.66
2022-09-06T01:12:02.305Z,18.56
2022-09-06T01:15:06.237Z,18.48
2022-09-06T01:18:35.338Z,18.45
2022-09-06T01:21:51.462Z,18.30
2022-09-06T01:24:54.404Z,18.32
2022-09-06T01:28:15.659Z,18.33
2022-09-06T01:31:18.539Z,18.33
2022-09-06T01:34:50.576Z,18.27
2022-09-06T01:37:54.006Z,18.21
2022-09-06T01:40:56.580Z,18.05
2022-09-06T01:43:59.416Z,17.89
2022-09-06T01:47:22.454Z,17.92
2022-09-06T01:50:35.892Z,17.99
2022-09-06T01:53:53.862Z,18.08
2022-09-06T01:57:07.668Z,18.17
2022-09-06T02:00:11.706Z,18.15
2022-09-06T02:03:20.890Z,18.25
2022-09-06T02:06:27.826Z,18.24
2022-09-06T02:09:41.377Z,18.26
2022-09-06T02:12:45.685Z,18.31
2022-09-06T02:15:54.671Z,18.20
2022-09-06T02:19:06.531Z,18.21
2022-09-06T02:22:10.576Z,18.09
2022-09-06T02:25:15.792Z,18.12
2022-09-06T02:28:18.889Z,18.06
2022-09-06T02:31:23.335Z,17.94
2022-09-06T02:34:25.960Z,17.99
2022-09-06T02:37:29.087Z,18.01
2022-09-06T02:40:32.059Z,18.11
2022-09-06T02:43:36.172Z,18.08
2022-09-06T02:46:38.828Z,18.12
2022-09-06T02:49:41.652Z,18.12
2022-09-06T02:52:44.387Z,18.07
2022-09-06T02:55:49.251Z,18.04
2022-09-06T02:58:54.942Z,18.00
2022-09-06T03:02:06.905Z,17.76
2022-09-06T03:05:09.789Z,17.84
2022-09-06T03:08:25.975Z,17.91
2022-09-06T03:11:28.606Z,17.90
2022-09-06T03:14:31.761Z,17.85
2022-09-06T03:17:34.342Z,17.82
2022-09-06T03:20:37.389Z,17.87
2022-09-06T03:23:48.692Z,17.84
2022-09-06T03:26:52.917Z,17.88
2022-09-06T03:29:55.705Z,17.85
2022-09-06T03:33:02.623Z,17.88
2022-09-06T03:36:05.616Z,17.81
2022-09-06T03:39:11.164Z,17.84
2022-09-06T03:42:14.050Z,17.84
2022-09-06T03:45:16.908Z,17.83
2022-09-06T03:48:27.754Z,17.83
2022-09-06T03:51:31.554Z,17.70
2022-09-06T03:54:34.260Z,17.73
2022-09-06T04:01:38.698Z,17.75
2022-09-06T04:04:41.571Z,17.67
2022-09-06T04:07:44.100Z,17.49
2022-09-06T04:10:51.491Z,17.56
2022-09-06T04:13:54.030Z,17.53
2022-09-06T04:16:56.970Z,17.56
2022-09-06T04:19:59.601Z,17.52
2022-09-06T04:23:02.668Z,17.53
2022-09-06T04:26:05.527Z,17.46
2022-09-06T04:29:09.484Z,17.44
2022-09-06T04:32:12.188Z,17.42
2022-09-06T04:35:16.275Z,17.46
2022-09-06T04:38:19.091Z,17.41
2022-09-06T04:41:22.046Z,17.47
2022-09-06T04:44:24.778Z,17.38
2022-09-06T04:47:27.641Z,17.43
2022-09-06T04:50:31.526Z,17.41
2022-09-06T04:53:40.918Z,17.45
2022-09-06T04:56:43.958Z,17.30
2022-09-06T04:59:46.865Z,17.40
2022-09-06T05:02:49.389Z,17.36
2022-09-06T05:05:52.197Z,17.42
2022-09-06T05:08:54.736Z,17.51
2022-09-06T05:12:00.441Z,17.52
2022-09-06T05:15:04.194Z,17.42
2022-09-06T05:18:10.100Z,17.39
2022-09-06T05:21:16.170Z,17.48
2022-09-06T05:24:19.983Z,17.43
2022-09-06T05:27:23.010Z,17.56
2022-09-06T05:30:38.769Z,17.48
2022-09-06T05:34:03.297Z,17.70
2022-09-06T05:37:06.264Z,17.78
2022-09-06T05:40:10.982Z,17.94
2022-09-06T05:43:14.141Z,18.06
2022-09-06T05:46:18.407Z,18.24
2022-09-06T05:49:24.700Z,18.13
2022-09-06T05:52:35.321Z,18.08
2022-09-06T05:55:42.323Z,18.32
2022-09-06T06:02:07.841Z,18.51
2022-09-06T06:05:10.792Z,18.76
2022-09-06T06:08:13.369Z,18.81
2022-09-06T06:11:16.458Z,19.00
2022-09-06T06:18:05.569Z,18.76
2022-09-06T06:21:25.580Z,19.19
2022-09-06T06:24:30.532Z,19.10
2022-09-06T06:27:34.982Z,19.24
2022-09-06T06:30:38.008Z,19.31
2022-09-06T06:33:40.682Z,19.22
2022-09-06T06:36:44.486Z,19.50
2022-09-06T06:39:48.116Z,19.52
2022-09-06T06:42:51.068Z,19.49
2022-09-06T06:45:53.894Z,19.45
2022-09-06T06:48:56.904Z,19.70
2022-09-06T06:51:59.497Z,19.89
2022-09-06T06:55:02.296Z,19.63
2022-09-06T06:58:05.927Z,19.95
2022-09-06T07:01:10.012Z,19.91
2022-09-06T07:04:14.331Z,20.41
2022-09-06T07:07:34.418Z,20.62
2022-09-06T07:10:39.183Z,20.75
2022-09-06T07:13:42.309Z,20.84
2022-09-06T07:16:45.012Z,20.92
2022-09-06T07:30:26.778Z,21.35
2022-09-06T07:33:30.462Z,21.46
2022-09-06T07:36:35.798Z,21.51
2022-09-06T07:39:48.678Z,21.63
2022-09-06T07:42:54.109Z,21.97
2022-09-06T07:46:18.075Z,22.01
2022-09-06T07:49:21.277Z,22.06
2022-09-06T07:55:49.455Z,22.27
2022-09-06T07:58:52.776Z,22.16
2022-09-06T08:01:55.735Z,22.43
2022-09-06T08:05:00.534Z,22.51
2022-09-06T08:11:37.268Z,22.94
2022-09-06T08:14:39.792Z,22.67
2022-09-06T08:17:42.429Z,22.77
2022-09-06T08:20:44.994Z,22.94
2022-09-06T08:23:48.935Z,23.14
2022-09-06T08:26:52.087Z,23.08
2022-09-06T08:29:54.920Z,22.88
2022-09-06T08:32:58.597Z,23.01
2022-09-06T08:36:01.520Z,22.93
2022-09-06T08:39:05.468Z,22.92
2022-09-06T08:42:08.610Z,23.15
2022-09-06T08:45:12.650Z,23.31
2022-09-06T08:48:15.410Z,23.24
2022-09-06T08:51:21.209Z,23.33
2022-09-06T08:54:36.716Z,23.40
2022-09-06T08:57:45.272Z,23.49
2022-09-06T09:00:51.169Z,23.35
2022-09-06T09:03:55.719Z,23.44
2022-09-06T09:06:59.915Z,23.48
2022-09-06T09:10:03.416Z,23.54
2022-09-06T09:13:06.560Z,23.77
2022-09-06T09:16:09.234Z,24.31
2022-09-06T09:19:12.260Z,24.24
2022-09-06T09:22:15.778Z,24.10
2022-09-06T09:25:22.077Z,24.23
2022-09-06T09:28:24.944Z,24.13
2022-09-06T09:31:38.928Z,24.02
2022-09-06T09:34:41.535Z,24.12
2022-09-06T09:40:53.633Z,24.33
2022-09-06T09:44:04.848Z,24.43
2022-09-06T09:47:30.626Z,24.56
2022-09-06T09:50:36.377Z,24.90
2022-09-06T09:53:50.066Z,25.39
2022-09-06T09:56:53.185Z,25.19
2022-09-06T09:59:58.349Z,25.37
2022-09-06T10:03:12.694Z,25.57
2022-09-06T10:09:44.023Z,25.42
2022-09-06T10:12:46.896Z,25.54
2022-09-06T10:15:52.741Z,25.58
2022-09-06T10:18:55.612Z,25.77
2022-09-06T10:22:00.238Z,25.80
2022-09-06T10:25:14.771Z,25.92
2022-09-06T10:28:26.973Z,26.07
2022-09-06T10:32:05.462Z,26.17
2022-09-06T10:35:21.194Z,26.43
2022-09-06T10:38:24.519Z,26.69
2022-09-06T10:41:45.950Z,26.83
2022-09-06T10:44:55.122Z,27.03
2022-09-06T10:48:13.881Z,26.14
2022-09-06T10:51:45.832Z,26.96
2022-09-06T10:54:48.402Z,26.82
2022-09-06T11:01:48.439Z,27.88
2022-09-06T11:12:08.124Z,27.53
2022-09-06T11:15:12.531Z,27.44
2022-09-06T11:18:27.786Z,27.29
2022-09-06T11:21:39.980Z,27.66
2022-09-06T11:25:01.937Z,27.35
2022-09-06T11:28:04.640Z,27.76
2022-09-06T11:34:34.300Z,28.19
2022-09-06T11:37:39.746Z,28.81
2022-09-06T11:40:44.498Z,29.04
2022-09-06T11:43:50.139Z,28.79
2022-09-06T11:46:56.540Z,28.31
2022-09-06T11:50:24.690Z,27.35
2022-09-06T11:53:32.288Z,28.26
2022-09-06T11:56:56.218Z,29.39
2022-09-06T12:00:01.078Z,29.74
2022-09-06T12:06:33.033Z,30.99
2022-09-06T12:09:39.844Z,31.24
2022-09-06T12:12:45.421Z,30.93
2022-09-06T12:16:44.537Z,30.73
2022-09-06T12:19:44.951Z,32.44
2022-09-06T12:23:15.895Z,32.42
2022-09-06T12:26:40.760Z,32.44
2022-09-06T12:29:55.077Z,32.58
2022-09-06T12:33:10.506Z,32.40
2022-09-06T12:36:31.134Z,32.45
2022-09-06T12:39:42.700Z,32.64
2022-09-06T12:42:52.848Z,33.16
2022-09-06T12:45:55.454Z,33.56
2022-09-06T12:53:15.758Z,34.99
2022-09-06T12:56:21.014Z,33.42
2022-09-06T12:59:25.500Z,33.83
2022-09-06T13:02:41.482Z,32.59
2022-09-06T13:05:45.690Z,32.35
2022-09-06T13:08:50.103Z,34.31
2022-09-06T13:11:52.982Z,35.21
2022-09-06T13:14:56.731Z,36.07
2022-09-06T13:18:17.970Z,35.25
2022-09-06T13:21:28.102Z,34.98
2022-09-06T13:24:43.374Z,33.91
2022-09-06T13:27:51.104Z,33.64
2022-09-06T13:31:19.905Z,33.59
2022-09-06T13:34:28.526Z,34.70
2022-09-06T13:37:33.916Z,33.94
2022-09-06T13:40:53.780Z,35.02
2022-09-06T13:44:21.532Z,34.62
2022-09-06T13:47:27.681Z,36.69
2022-09-06T13:50:35.684Z,35.39
2022-09-06T13:53:39.459Z,34.42
2022-09-06T13:56:44.990Z,33.46
2022-09-06T13:59:47.968Z,31.83
2022-09-06T14:02:50.961Z,29.27
2022-09-06T14:05:55.050Z,28.45
2022-09-06T14:09:06.770Z,27.81
2022-09-06T14:12:11.255Z,28.21
2022-09-06T14:15:13.907Z,27.79
2022-09-06T14:18:16.910Z,26.27
2022-09-06T14:25:19.081Z,26.08
2022-09-06T14:28:21.927Z,25.25
2022-09-06T14:31:26.336Z,24.08
2022-09-06T14:34:32.682Z,24.31
2022-09-06T14:37:36.906Z,23.69
2022-09-06T14:40:40.195Z,23.53
2022-09-06T14:43:43.605Z,23.89
2022-09-06T14:46:48.787Z,24.00
2022-09-06T14:49:51.720Z,23.93
2022-09-06T14:52:54.679Z,24.07
2022-09-06T14:56:01.342Z,24.06
2022-09-06T14:59:04.624Z,23.82
2022-09-06T15:02:07.516Z,23.14
2022-09-06T15:05:10.864Z,23.45
2022-09-06T15:08:14.692Z,22.92
2022-09-06T15:11:38.878Z,22.47
2022-09-06T15:14:48.734Z,21.78
2022-09-06T15:46:05.756Z,21.99
2022-09-06T15:53:34.302Z,21.63
2022-09-06T15:56:50.011Z,21.84
2022-09-06T16:07:19.875Z,21.84
2022-09-06T16:10:28.352Z,21.93
2022-09-06T16:13:36.085Z,22.00
2022-09-06T16:16:51.087Z,22.15
2022-09-06T16:19:53.761Z,22.05
2022-09-06T16:22:56.935Z,21.83
2022-09-06T16:26:00.748Z,21.89
2022-09-06T16:29:04.801Z,21.93
2022-09-06T16:32:07.858Z,21.98
2022-09-06T16:35:26.635Z,22.20
2022-09-06T16:47:08.211Z,22.78
2022-09-06T16:50:11.426Z,22.52
2022-09-06T16:53:19.148Z,22.49
2022-09-06T16:56:27.694Z,22.31
2022-09-06T16:59:30.397Z,22.15
2022-09-06T17:02:33.892Z,21.86
2022-09-06T17:13:17.443Z,21.29
2022-09-06T17:20:48.252Z,21.23
2022-09-06T17:23:54.435Z,21.24
2022-09-06T17:26:57.505Z,21.25
2022-09-06T17:30:04.080Z,21.09
2022-09-06T17:33:24.834Z,21.03
2022-09-06T17:36:30.674Z,20.98
2022-09-06T17:39:33.903Z,20.91
2022-09-06T17:42:37.399Z,20.83
2022-09-06T17:45:42.870Z,20.69
2022-09-06T17:48:46.224Z,20.62
2022-09-06T17:51:49.493Z,20.61
2022-09-06T17:54:52.473Z,20.53
2022-09-06T17:57:59.050Z,20.51
2022-09-06T18:01:03.506Z,20.44
2022-09-06T18:04:07.872Z,20.38
2022-09-06T18:07:10.731Z,20.55
2022-09-06T18:10:15.283Z,20.49
2022-09-06T18:13:18.058Z,20.32
2022-09-06T18:16:21.494Z,20.34
2022-09-06T18:19:25.061Z,20.21
2022-09-06T18:22:28.341Z,20.20
2022-09-06T18:25:31.695Z,20.15
2022-09-06T18:28:38.352Z,20.07
2022-09-06T18:31:42.462Z,19.95
2022-09-06T18:34:45.599Z,19.95
2022-09-06T18:37:49.510Z,19.97
2022-09-06T18:40:53.157Z,19.96
2022-09-06T18:43:56.307Z,19.86
2022-09-06T18:47:01.648Z,19.81
2022-09-06T18:50:05.412Z,19.73
2022-09-06T18:53:08.801Z,19.63
2022-09-06T18:56:12.051Z,19.59
2022-09-06T18:59:15.304Z,19.59
2022-09-06T19:02:18.104Z,19.54
2022-09-06T19:05:21.584Z,19.50
2022-09-06T19:08:24.302Z,19.37
2022-09-06T19:11:27.227Z,19.38
2022-09-06T19:14:30.734Z,19.36
2022-09-06T19:17:34.006Z,19.32
2022-09-06T19:20:38.046Z,19.29
2022-09-06T19:23:42.323Z,19.37
2022-09-06T19:26:45.576Z,19.34
2022-09-06T19:29:49.177Z,19.29
2022-09-06T19:32:52.085Z,19.22
2022-09-06T19:36:10.460Z,19.03
2022-09-06T19:39:15.966Z,18.99
2022-09-06T19:42:19.539Z,18.92
2022-09-06T19:45:22.484Z,18.87
2022-09-06T19:48:26.348Z,18.80
2022-09-06T19:51:29.581Z,18.79
2022-09-06T19:54:32.912Z,18.64
2022-09-06T19:57:36.126Z,18.68
2022-09-06T20:00:43.383Z,18.66
2022-09-06T20:03:46.689Z,18.67
2022-09-06T20:06:49.833Z,18.78
2022-09-06T20:09:53.061Z,18.84
2022-09-06T20:12:56.329Z,18.91
2022-09-06T20:15:59.581Z,18.87
2022-09-06T20:19:02.845Z,18.80
2022-09-06T20:22:06.116Z,18.65
2022-09-06T20:25:09.640Z,18.62
2022-09-06T20:28:14.698Z,18.50
2022-09-06T20:31:18.297Z,18.53
2022-09-06T20:34:21.882Z,18.53
2022-09-06T20:37:27.345Z,18.51
2022-09-06T20:40:31.235Z,18.40
2022-09-06T20:43:36.958Z,18.38
2022-09-06T20:46:40.450Z,18.27
2022-09-06T20:49:43.836Z,18.24
2022-09-06T20:52:47.378Z,18.26
2022-09-06T20:55:55.993Z,18.27
2022-09-06T20:59:01.158Z,18.24
2022-09-06T21:02:04.093Z,18.16
2022-09-06T21:05:07.216Z,18.12
2022-09-06T21:08:10.510Z,18.14
2022-09-06T21:11:13.422Z,18.18
2022-09-06T21:14:16.006Z,18.02
2022-09-06T21:17:18.876Z,18.00
2022-09-06T21:20:21.494Z,17.90
2022-09-06T21:23:25.449Z,17.94
2022-09-06T21:26:27.996Z,17.90
2022-09-06T21:29:32.390Z,17.86
2022-09-06T21:32:34.983Z,17.92
2022-09-06T21:35:38.093Z,17.91
2022-09-06T21:38:42.419Z,17.94
2022-09-06T21:41:45.877Z,17.85
2022-09-06T21:44:48.343Z,17.77
2022-09-06T21:47:52.259Z,17.65
2022-09-06T21:50:54.854Z,17.65
2022-09-06T21:53:57.717Z,17.60
2022-09-06T21:57:00.319Z,17.58
2022-09-06T22:00:03.445Z,17.56
2022-09-06T22:03:08.182Z,17.65
2022-09-06T22:06:12.931Z,17.52
2022-09-06T22:09:15.485Z,17.36
2022-09-06T22:12:19.452Z,17.39
2022-09-06T22:15:23.770Z,17.41
2022-09-06T22:18:26.982Z,17.33
2022-09-06T22:21:29.648Z,17.28
2022-09-06T22:24:32.803Z,17.29
2022-09-06T22:27:35.354Z,17.31
2022-09-06T22:30:38.147Z,17.37
2022-09-06T22:33:40.807Z,17.37
2022-09-06T22:36:43.785Z,17.34
2022-09-06T22:39:48.200Z,17.34
2022-09-06T22:42:51.470Z,17.38
2022-09-06T22:45:55.438Z,17.37
2022-09-06T22:48:58.745Z,17.35
2022-09-06T22:52:01.970Z,17.33
2022-09-06T22:55:05.046Z,17.31
2022-09-06T22:58:07.814Z,17.30
2022-09-06T23:01:12.257Z,17.29
2022-09-06T23:04:14.996Z,17.22
2022-09-06T23:07:18.013Z,17.18
2022-09-06T23:10:20.615Z,17.17
2022-09-06T23:13:23.529Z,17.19
2022-09-06T23:16:27.111Z,17.18
2022-09-06T23:19:30.667Z,17.22
2022-09-06T23:22:33.653Z,17.26
2022-09-06T23:25:38.922Z,17.24
2022-09-06T23:28:42.929Z,17.30
2022-09-06T23:31:45.989Z,17.32
2022-09-06T23:34:50.081Z,17.32
2022-09-06T23:37:55.404Z,17.44
2022-09-06T23:40:58.119Z,17.51
2022-09-06T23:44:01.894Z,17.45
2022-09-06T23:47:04.511Z,17.49
2022-09-06T23:50:10.776Z,17.59
2022-09-06T23:53:14.167Z,17.46
2022-09-06T23:56:17.081Z,17.52
2022-09-06T23:59:19.889Z,17.58
